createdAt,value
2019-04-05T00:02:05.497Z,37.00
2019-04-05T00:04:32.385Z,37.00
2019-04-05T00:06:59.231Z,37.00
2019-04-05T00:09:26.475Z,37.00
2019-04-05T00:11:53.254Z,37.00
2019-04-05T00:14:20.140Z,37.00
2019-04-05T00:16:46.875Z,37.00
2019-04-05T00:19:13.631Z,36.90
2019-04-05T00:21:40.356Z,37.00
2019-04-05T00:24:07.126Z,37.00
2019-04-05T00:26:33.829Z,36.90
2019-04-05T00:29:01.020Z,37.00
2019-04-05T00:31:27.769Z,37.00
2019-04-05T00:33:54.558Z,37.00
2019-04-05T00:36:21.652Z,37.00
2019-04-05T00:38:48.395Z,36.90
2019-04-05T00:41:15.160Z,37.00
2019-04-05T00:43:41.963Z,37.00
2019-04-05T00:46:08.676Z,37.00
2019-04-05T00:48:35.909Z,36.90
2019-04-05T00:51:05.811Z,36.90
2019-04-05T00:53:32.595Z,36.90
2019-04-05T00:55:59.331Z,36.90
2019-04-05T00:58:26.115Z,36.90
2019-04-05T01:00:53.102Z,36.90
2019-04-05T01:03:19.862Z,36.90
2019-04-05T01:05:46.615Z,37.00
2019-04-05T01:08:13.319Z,36.90
2019-04-05T01:10:40.175Z,36.90
2019-04-05T01:13:06.985Z,36.90
2019-04-05T01:15:40.729Z,36.90
2019-04-05T01:18:02.405Z,36.90
2019-04-05T01:20:33.744Z,36.90
2019-04-05T01:23:00.623Z,36.90
2019-04-05T01:25:27.360Z,36.90
2019-04-05T01:27:54.083Z,36.90
2019-04-05T01:30:20.838Z,36.90
2019-04-05T01:32:48.010Z,36.90
2019-04-05T01:35:14.738Z,36.90
2019-04-05T01:37:41.480Z,36.80
2019-04-05T01:40:08.209Z,36.90
2019-04-05T01:42:36.155Z,36.90
2019-04-05T01:45:06.418Z,36.90
2019-04-05T01:47:33.465Z,36.90
2019-04-05T01:50:00.225Z,36.80
2019-04-05T01:52:26.948Z,36.90
2019-04-05T01:54:53.690Z,36.90
2019-04-05T01:57:20.767Z,36.80
2019-04-05T01:59:47.531Z,36.80
2019-04-05T02:02:14.251Z,36.80
2019-04-05T02:04:41.493Z,37.10
2019-04-05T02:07:08.656Z,36.80
2019-04-05T02:09:35.446Z,36.90
2019-04-05T02:12:02.193Z,36.90
2019-04-05T02:14:29.038Z,36.80
2019-04-05T02:16:55.891Z,36.90
2019-04-05T02:19:22.813Z,36.80
2019-04-05T02:21:49.631Z,36.80
2019-04-05T02:24:17.056Z,36.90
2019-04-05T02:26:43.800Z,36.80
2019-04-05T02:29:10.843Z,36.80
2019-04-05T02:31:37.585Z,36.80
2019-04-05T02:34:04.452Z,36.80
2019-04-05T02:36:31.196Z,36.80
2019-04-05T02:38:58.020Z,36.90
2019-04-05T02:41:24.751Z,36.80
2019-04-05T02:43:51.916Z,36.80
2019-04-05T02:46:23.921Z,36.80
2019-04-05T02:48:48.151Z,36.70
2019-04-05T02:51:15.090Z,36.80
2019-04-05T02:53:41.819Z,36.80
2019-04-05T02:56:08.561Z,36.70
2019-04-05T02:58:36.293Z,36.80
2019-04-05T03:01:03.084Z,36.70
2019-04-05T03:03:32.779Z,36.70
2019-04-05T03:05:59.543Z,36.80
2019-04-05T03:08:26.277Z,36.80
2019-04-05T03:11:05.689Z,36.80
2019-04-05T03:13:37.187Z,36.80
2019-04-05T03:16:10.256Z,36.80
2019-04-05T03:18:41.341Z,36.80
2019-04-05T03:21:08.518Z,36.80
2019-04-05T03:23:39.285Z,36.70
2019-04-05T03:26:08.527Z,36.80
2019-04-05T03:28:35.247Z,36.80
2019-04-05T03:31:02.324Z,36.70
2019-04-05T03:33:29.068Z,36.80
2019-04-05T03:35:55.819Z,37.10
2019-04-05T03:38:22.620Z,36.70
2019-04-05T03:40:49.417Z,36.80
2019-04-05T03:43:16.341Z,36.70
2019-04-05T03:45:43.313Z,36.70
2019-04-05T03:48:10.086Z,36.70
2019-04-05T03:50:36.949Z,36.70
2019-04-05T03:53:04.094Z,36.70
2019-04-05T03:55:31.398Z,36.70
2019-04-05T03:57:58.168Z,36.70
2019-04-05T04:00:25.061Z,36.70
2019-04-05T04:02:52.214Z,36.70
2019-04-05T04:05:19.230Z,36.80
2019-04-05T04:07:46.036Z,36.80
2019-04-05T04:10:17.485Z,36.80
2019-04-05T04:12:44.244Z,36.70
2019-04-05T04:15:14.836Z,36.70
2019-04-05T04:17:42.232Z,36.70
2019-04-05T04:20:35.516Z,36.70
2019-04-05T04:23:04.194Z,36.70
2019-04-05T04:25:30.951Z,36.70
2019-04-05T04:27:57.899Z,36.60
2019-04-05T04:30:24.875Z,36.60
2019-04-05T04:32:52.201Z,36.60
2019-04-05T04:35:18.948Z,36.60
2019-04-05T04:37:45.724Z,36.50
2019-04-05T04:40:12.556Z,36.90
2019-04-05T04:42:40.784Z,36.40
2019-04-05T04:45:12.754Z,36.40
2019-04-05T04:47:39.928Z,36.40
2019-04-05T04:50:08.577Z,36.40
2019-04-05T04:52:35.558Z,36.40
2019-04-05T04:55:04.685Z,36.40
2019-04-05T04:57:31.693Z,36.40
2019-04-05T05:00:00.155Z,36.40
2019-04-05T05:02:26.926Z,36.30
2019-04-05T05:04:55.071Z,36.30
2019-04-05T05:07:21.839Z,36.30
2019-04-05T05:09:48.569Z,36.30
2019-04-05T05:12:15.321Z,36.30
2019-04-05T05:14:42.201Z,36.30
2019-04-05T05:17:08.951Z,36.30
2019-04-05T05:19:36.522Z,36.40
2019-04-05T05:22:03.309Z,36.30
2019-04-05T05:24:30.782Z,36.40
2019-04-05T05:26:57.814Z,36.40
2019-04-05T05:29:24.682Z,36.40
2019-04-05T05:31:51.488Z,36.40
2019-04-05T05:34:18.225Z,35.90
2019-04-05T05:36:45.244Z,36.50
2019-04-05T05:39:12.295Z,36.50
2019-04-05T05:41:39.247Z,36.60
2019-04-05T05:44:05.986Z,36.50
2019-04-05T05:46:34.487Z,36.50
2019-04-05T05:49:01.224Z,36.60
2019-04-05T05:51:28.208Z,36.60
2019-04-05T05:53:54.944Z,36.60
2019-04-05T05:56:24.538Z,36.60
2019-04-05T05:58:51.278Z,36.60
2019-04-05T06:01:18.042Z,36.60
2019-04-05T06:03:44.795Z,36.60
2019-04-05T06:06:11.921Z,36.60
2019-04-05T06:08:38.978Z,36.60
2019-04-05T06:11:05.718Z,36.70
2019-04-05T06:13:32.564Z,36.70
2019-04-05T06:15:59.311Z,36.60
2019-04-05T06:18:26.126Z,36.60
2019-04-05T06:20:53.292Z,36.60
2019-04-05T06:23:32.779Z,36.60
2019-04-05T06:25:49.258Z,36.50
2019-04-05T06:28:16.128Z,36.60
2019-04-05T06:30:42.999Z,36.50
2019-04-05T06:33:09.769Z,36.50
2019-04-05T06:35:36.837Z,36.50
2019-04-05T06:38:03.688Z,36.40
2019-04-05T06:40:40.009Z,36.50
2019-04-05T06:42:59.406Z,36.50
2019-04-05T06:45:26.512Z,36.40
2019-04-05T06:47:53.290Z,36.40
2019-04-05T06:50:20.017Z,36.40
2019-04-05T06:52:46.993Z,36.40
2019-04-05T06:55:14.042Z,36.40
2019-04-05T06:57:41.061Z,36.40
2019-04-05T07:00:07.801Z,36.40
2019-04-05T07:02:34.654Z,36.40
2019-04-05T07:05:01.483Z,36.40
2019-04-05T07:07:28.251Z,36.40
2019-04-05T07:09:56.188Z,36.30
2019-04-05T07:12:23.206Z,36.30
2019-04-05T07:14:49.971Z,36.40
2019-04-05T07:17:16.768Z,36.50
2019-04-05T07:19:43.865Z,36.40
2019-04-05T07:22:10.642Z,36.50
2019-04-05T07:24:37.754Z,36.60
2019-04-05T07:27:04.519Z,36.60
2019-04-05T07:29:31.283Z,37.00
2019-04-05T07:31:58.242Z,36.60
2019-04-05T07:34:25.450Z,36.60
2019-04-05T07:36:52.907Z,36.60
2019-04-05T07:39:19.725Z,36.70
2019-04-05T07:41:46.546Z,36.70
2019-04-05T07:44:13.292Z,36.70
2019-04-05T07:46:40.040Z,36.60
2019-04-05T07:49:06.826Z,36.70
2019-04-05T07:51:33.921Z,36.60
2019-04-05T07:54:01.997Z,36.70
2019-04-05T07:56:28.809Z,36.30
2019-04-05T07:58:55.677Z,36.70
2019-04-05T08:01:22.418Z,36.70
2019-04-05T08:03:49.275Z,36.70
2019-04-05T08:06:16.475Z,36.70
2019-04-05T08:08:52.102Z,36.60
2019-04-05T08:11:19.301Z,36.60
2019-04-05T08:13:46.499Z,36.60
2019-04-05T08:16:13.543Z,36.50
2019-04-05T08:18:40.684Z,36.50
2019-04-05T08:21:10.175Z,36.60
2019-04-05T08:23:36.951Z,36.70
2019-04-05T08:26:04.475Z,36.60
2019-04-05T08:28:31.351Z,36.70
2019-04-05T08:30:59.020Z,36.60
2019-04-05T08:33:25.954Z,36.60
2019-04-05T08:35:53.133Z,36.60
2019-04-05T08:38:20.443Z,36.60
2019-04-05T08:40:47.252Z,36.60
2019-04-05T08:43:14.219Z,36.60
2019-04-05T08:45:40.976Z,36.60
2019-04-05T08:48:07.730Z,36.50
2019-04-05T08:50:34.578Z,36.50
2019-04-05T08:53:02.408Z,36.50
2019-04-05T08:55:29.721Z,36.80
2019-04-05T08:57:56.673Z,36.90
2019-04-05T09:00:23.524Z,37.00
2019-04-05T09:02:50.632Z,37.10
2019-04-05T09:05:17.693Z,36.70
2019-04-05T09:07:46.019Z,36.80
2019-04-05T09:10:12.867Z,37.00
2019-04-05T09:12:41.285Z,37.00
2019-04-05T09:15:10.851Z,37.10
2019-04-05T09:17:42.255Z,37.10
2019-04-05T09:20:10.051Z,37.10
2019-04-05T09:22:36.795Z,37.10
2019-04-05T09:25:07.385Z,37.20
2019-04-05T09:27:34.292Z,37.20
2019-04-05T09:30:01.099Z,37.10
2019-04-05T09:32:27.894Z,37.10
2019-04-05T09:34:54.663Z,37.00
2019-04-05T09:37:21.525Z,36.80
2019-04-05T09:39:48.816Z,36.70
2019-04-05T09:42:15.827Z,36.80
2019-04-05T09:44:42.969Z,36.90
2019-04-05T09:47:10.180Z,36.90
2019-04-05T09:49:37.755Z,36.90
2019-04-05T09:52:04.672Z,36.90
2019-04-05T09:54:31.530Z,36.90
2019-04-05T09:56:58.460Z,36.90
2019-04-05T09:59:25.187Z,36.80
2019-04-05T10:01:51.957Z,36.80
2019-04-05T10:04:18.710Z,36.80
2019-04-05T10:06:45.822Z,36.80
2019-04-05T10:09:14.063Z,36.70
2019-04-05T10:11:40.968Z,36.70
2019-04-05T10:14:09.196Z,36.70
2019-04-05T10:16:35.961Z,36.70
2019-04-05T10:19:03.189Z,36.80
2019-04-05T10:21:29.968Z,36.80
2019-04-05T10:23:58.084Z,36.60
2019-04-05T10:26:25.301Z,36.70
2019-04-05T10:28:52.427Z,36.70
2019-04-05T10:31:19.263Z,36.60
2019-04-05T10:33:46.024Z,36.50
2019-04-05T10:36:13.265Z,36.40
2019-04-05T10:38:40.139Z,36.40
2019-04-05T10:41:06.944Z,36.30
2019-04-05T10:43:35.627Z,36.30
2019-04-05T10:46:02.992Z,36.20
2019-04-05T10:48:29.891Z,36.30
2019-04-05T10:50:56.683Z,36.30
2019-04-05T10:53:25.364Z,36.20
2019-04-05T10:55:52.492Z,36.10
2019-04-05T10:58:20.080Z,35.90
2019-04-05T11:00:46.947Z,36.10
2019-04-05T11:03:13.744Z,36.00
2019-04-05T11:05:40.888Z,35.80
2019-04-05T11:08:07.840Z,35.80
2019-04-05T11:10:34.922Z,35.80
2019-04-05T11:13:01.660Z,35.90
2019-04-05T11:15:30.970Z,35.90
2019-04-05T11:17:57.374Z,35.80
2019-04-05T11:20:24.593Z,35.60
2019-04-05T11:22:51.508Z,35.70
2019-04-05T11:25:20.622Z,35.80
2019-04-05T11:27:47.541Z,35.90
2019-04-05T11:30:22.096Z,35.90
2019-04-05T11:32:49.287Z,35.80
2019-04-05T11:35:16.517Z,35.80
2019-04-05T11:37:43.658Z,35.90
2019-04-05T11:40:16.283Z,35.90
2019-04-05T11:42:44.986Z,35.80
2019-04-05T11:45:11.764Z,35.60
2019-04-05T11:47:38.590Z,35.60
2019-04-05T11:50:08.370Z,35.50
2019-04-05T11:52:35.614Z,35.50
2019-04-05T11:55:06.070Z,35.50
2019-04-05T11:57:32.956Z,35.40
2019-04-05T12:00:00.125Z,35.50
2019-04-05T12:02:30.335Z,35.80
2019-04-05T12:04:58.507Z,35.80
2019-04-05T12:07:26.714Z,35.80
2019-04-05T12:09:54.949Z,35.80
2019-04-05T12:12:25.486Z,35.60
2019-04-05T12:14:51.446Z,35.80
2019-04-05T12:17:18.249Z,35.80
2019-04-05T12:19:45.397Z,35.80
2019-04-05T12:22:12.541Z,35.60
2019-04-05T12:24:39.333Z,35.60
2019-04-05T12:27:06.953Z,35.40
2019-04-05T12:29:34.344Z,35.50
2019-04-05T12:32:02.963Z,35.30
2019-04-05T12:34:30.191Z,35.30
2019-04-05T12:36:57.077Z,35.20
2019-04-05T12:39:24.237Z,35.70
2019-04-05T12:41:52.022Z,35.00
2019-04-05T12:44:19.116Z,35.00
2019-04-05T12:46:46.352Z,34.90
2019-04-05T12:49:15.273Z,34.80
2019-04-05T12:51:43.382Z,34.70
2019-04-05T12:54:11.855Z,34.60
2019-04-05T12:56:38.654Z,34.60
2019-04-05T12:59:05.406Z,34.50
2019-04-05T13:01:32.235Z,34.50
2019-04-05T13:03:59.771Z,34.50
2019-04-05T13:06:26.522Z,34.40
2019-04-05T13:08:54.459Z,34.30
2019-04-05T13:11:21.443Z,34.30
2019-04-05T13:13:48.476Z,34.00
2019-04-05T13:16:15.520Z,34.10
2019-04-05T13:18:42.490Z,33.90
2019-04-05T13:21:15.167Z,34.00
2019-04-05T13:23:38.262Z,33.90
2019-04-05T13:26:06.107Z,34.10
2019-04-05T13:28:33.268Z,34.00
2019-04-05T13:31:00.182Z,33.80
2019-04-05T13:33:29.013Z,34.10
2019-04-05T13:35:56.659Z,34.10
2019-04-05T13:38:23.534Z,34.10
2019-04-05T13:40:50.633Z,33.90
2019-04-05T13:43:17.830Z,34.00
2019-04-05T13:45:44.739Z,34.00
2019-04-05T13:48:11.758Z,34.50
2019-04-05T13:50:41.412Z,34.00
2019-04-05T13:53:07.311Z,33.80
2019-04-05T13:55:38.534Z,34.00
2019-04-05T13:58:06.207Z,34.10
2019-04-05T14:00:33.304Z,34.00
2019-04-05T14:03:00.834Z,34.10
2019-04-05T14:05:27.616Z,34.00
2019-04-05T14:08:09.118Z,34.00
2019-04-05T14:10:25.960Z,33.90
2019-04-05T14:12:53.355Z,33.90
2019-04-05T14:15:20.112Z,33.80
2019-04-05T14:17:49.233Z,33.90
2019-04-05T14:20:18.558Z,33.80
2019-04-05T14:22:51.452Z,33.80
2019-04-05T14:25:18.181Z,33.80
2019-04-05T14:27:44.937Z,33.80
2019-04-05T14:30:13.653Z,33.90
2019-04-05T14:32:40.765Z,33.80
2019-04-05T14:35:08.438Z,33.90
2019-04-05T14:37:35.507Z,33.90
2019-04-05T14:40:04.837Z,33.80
2019-04-05T14:42:31.786Z,33.80
2019-04-05T14:44:58.558Z,33.70
2019-04-05T14:47:28.332Z,33.90
2019-04-05T14:49:55.728Z,33.80
2019-04-05T14:52:25.444Z,33.90
2019-04-05T14:54:53.962Z,33.50
2019-04-05T14:57:20.767Z,33.80
2019-04-05T14:59:48.035Z,33.90
2019-04-05T15:02:14.941Z,33.70
2019-04-05T15:04:42.494Z,34.20
2019-04-05T15:07:09.703Z,33.90
2019-04-05T15:09:36.493Z,33.90
2019-04-05T15:12:04.196Z,34.60
2019-04-05T15:14:31.360Z,33.80
2019-04-05T15:16:58.111Z,33.80
2019-04-05T15:19:25.248Z,33.80
2019-04-05T15:22:04.821Z,33.80
2019-04-05T15:24:22.023Z,33.70
2019-04-05T15:26:49.474Z,33.70
2019-04-05T15:29:18.272Z,33.70
2019-04-05T15:31:45.475Z,33.60
2019-04-05T15:34:12.598Z,33.60
2019-04-05T15:36:39.451Z,33.60
2019-04-05T15:39:08.009Z,33.60
2019-04-05T15:41:34.885Z,33.60
2019-04-05T15:44:02.010Z,33.60
2019-04-05T15:46:29.111Z,33.60
2019-04-05T15:48:56.162Z,33.60
2019-04-05T15:51:24.845Z,33.60
2019-04-05T15:53:52.013Z,33.70
2019-04-05T15:56:18.915Z,33.60
2019-04-05T15:58:46.469Z,33.60
2019-04-05T16:01:14.771Z,33.60
2019-04-05T16:03:42.612Z,33.60
2019-04-05T16:06:09.803Z,33.60
2019-04-05T16:08:36.968Z,33.60
2019-04-05T16:11:05.809Z,33.60
2019-04-05T16:13:33.009Z,33.60
2019-04-05T16:16:00.212Z,33.60
2019-04-05T16:18:27.541Z,33.60
2019-04-05T16:20:54.383Z,33.60
2019-04-05T16:23:22.179Z,33.50
2019-04-05T16:25:48.990Z,33.60
2019-04-05T16:28:15.739Z,33.70
2019-04-05T16:30:42.648Z,33.60
2019-04-05T16:33:09.600Z,33.60
2019-04-05T16:35:38.662Z,33.60
2019-04-05T16:38:05.870Z,33.60
2019-04-05T16:40:32.727Z,33.70
2019-04-05T16:43:02.823Z,34.20
2019-04-05T16:45:30.389Z,33.70
2019-04-05T16:47:57.104Z,33.70
2019-04-05T16:50:24.297Z,33.80
2019-04-05T16:52:51.071Z,33.80
2019-04-05T16:55:18.172Z,33.90
2019-04-05T16:57:46.358Z,33.90
2019-04-05T17:00:13.408Z,34.00
2019-04-05T17:02:40.278Z,34.10
2019-04-05T17:05:07.292Z,34.00
2019-04-05T17:07:34.126Z,34.20
2019-04-05T17:10:00.885Z,34.00
2019-04-05T17:12:27.636Z,34.30
2019-04-05T17:14:54.447Z,34.30
2019-04-05T17:17:21.244Z,34.30
2019-04-05T17:19:48.031Z,34.40
2019-04-05T17:22:14.767Z,34.20
2019-04-05T17:24:41.576Z,34.40
2019-04-05T17:27:08.322Z,34.50
2019-04-05T17:29:35.342Z,34.40
2019-04-05T17:32:02.765Z,34.40
2019-04-05T17:34:29.753Z,34.40
2019-04-05T17:36:57.049Z,34.40
2019-04-05T17:39:25.811Z,34.40
2019-04-05T17:41:52.867Z,34.30
2019-04-05T17:44:19.791Z,34.20
2019-04-05T17:46:47.369Z,34.30
2019-04-05T17:49:14.324Z,34.20
2019-04-05T17:51:41.059Z,34.40
2019-04-05T17:54:07.982Z,34.40
2019-04-05T17:56:35.322Z,34.50
2019-04-05T17:59:02.094Z,34.70
2019-04-05T18:01:29.979Z,34.70
2019-04-05T18:03:57.063Z,34.80
2019-04-05T18:06:24.022Z,34.80
2019-04-05T18:08:52.174Z,34.90
2019-04-05T18:11:19.090Z,34.90
2019-04-05T18:13:46.238Z,35.10
2019-04-05T18:16:13.013Z,35.00
2019-04-05T18:18:39.777Z,35.10
2019-04-05T18:21:07.001Z,35.10
2019-04-05T18:23:34.047Z,35.20
2019-04-05T18:26:02.266Z,35.10
2019-04-05T18:28:29.000Z,35.20
2019-04-05T18:30:56.011Z,35.20
2019-04-05T18:33:22.998Z,35.20
2019-04-05T18:35:50.696Z,35.30
2019-04-05T18:38:18.009Z,35.30
2019-04-05T18:40:44.999Z,35.20
2019-04-05T18:43:12.340Z,35.80
2019-04-05T18:45:39.559Z,35.20
2019-04-05T18:48:06.565Z,35.20
2019-04-05T18:50:33.444Z,35.20
2019-04-05T18:53:00.389Z,35.30
2019-04-05T18:55:27.132Z,35.30
2019-04-05T18:57:54.145Z,35.30
2019-04-05T19:00:20.987Z,35.40
2019-04-05T19:02:47.841Z,35.50
2019-04-05T19:05:14.914Z,35.30
2019-04-05T19:07:42.292Z,35.30
2019-04-05T19:10:09.126Z,35.40
2019-04-05T19:12:35.949Z,35.60
2019-04-05T19:15:05.424Z,35.60
2019-04-05T19:17:32.199Z,35.60
2019-04-05T19:19:59.814Z,35.60
2019-04-05T19:22:26.543Z,35.60
2019-04-05T19:24:53.741Z,35.60
2019-04-05T19:27:20.457Z,35.60
2019-04-05T19:29:48.088Z,35.70
2019-04-05T19:49:37.539Z,35.70
2019-04-05T19:52:04.437Z,35.60
2019-04-05T19:54:31.192Z,35.70
2019-04-05T19:56:57.929Z,35.70
2019-04-05T19:59:24.717Z,35.70
2019-04-05T20:01:51.649Z,35.70
2019-04-05T20:04:18.370Z,35.80
2019-04-05T20:06:45.095Z,35.70
2019-04-05T20:09:11.856Z,35.80
2019-04-05T20:11:38.569Z,35.80
2019-04-05T20:14:05.327Z,35.80
2019-04-05T20:16:32.058Z,35.70
2019-04-05T20:18:58.792Z,35.80
2019-04-05T20:21:25.829Z,35.80
2019-04-05T20:23:52.640Z,35.80
2019-04-05T20:26:19.356Z,35.90
2019-04-05T20:28:47.496Z,35.80
2019-04-05T20:31:14.221Z,35.90
2019-04-05T20:33:41.004Z,35.90
2019-04-05T20:36:07.757Z,35.90
2019-04-05T20:38:34.559Z,35.90
2019-04-05T20:41:01.281Z,35.90
2019-04-05T20:43:28.026Z,36.00
2019-04-05T20:45:54.753Z,35.80
2019-04-05T20:48:21.506Z,35.80
2019-04-05T20:50:48.323Z,35.90
2019-04-05T20:53:15.038Z,35.90
2019-04-05T20:55:42.176Z,35.90
2019-04-05T20:58:08.900Z,36.00
2019-04-05T21:00:35.653Z,36.00
2019-04-05T21:03:02.393Z,36.00
2019-04-05T21:05:29.318Z,36.00
2019-04-05T21:07:56.079Z,36.00
2019-04-05T21:10:23.166Z,36.10
2019-04-05T21:12:50.024Z,36.00
2019-04-05T21:15:16.767Z,35.90
2019-04-05T21:17:43.703Z,35.90
2019-04-05T21:20:10.855Z,36.00
2019-04-05T21:22:37.856Z,35.90
2019-04-05T21:25:05.484Z,35.90
2019-04-05T21:27:32.355Z,36.00
2019-04-05T21:29:59.100Z,36.00
2019-04-05T21:32:25.822Z,36.00
2019-04-05T21:34:52.559Z,36.00
2019-04-05T21:37:19.677Z,36.00
2019-04-05T21:39:46.561Z,36.00
2019-04-05T21:42:14.314Z,36.00
2019-04-05T21:44:41.297Z,36.00
2019-04-05T21:47:08.002Z,36.00
2019-04-05T21:49:34.742Z,36.00
2019-04-05T21:52:01.858Z,36.10
2019-04-05T21:54:28.585Z,36.10
2019-04-05T21:56:55.305Z,36.00
2019-04-05T21:59:22.422Z,36.00
2019-04-05T22:01:49.785Z,36.10
2019-04-05T22:04:16.698Z,36.10
2019-04-05T22:06:43.414Z,36.20
2019-04-05T22:09:10.641Z,36.10
2019-04-05T22:11:38.059Z,36.10
2019-04-05T22:14:04.799Z,36.10
2019-04-05T22:16:31.825Z,36.20
2019-04-05T22:18:58.568Z,36.50
2019-04-05T22:21:25.341Z,36.10
2019-04-05T22:23:52.282Z,36.10
2019-04-05T22:26:19.229Z,36.10
2019-04-05T22:28:46.189Z,36.10
2019-04-05T22:31:13.333Z,36.10
2019-04-05T22:33:40.169Z,36.10
2019-04-05T22:36:06.940Z,36.20
2019-04-05T22:38:33.653Z,36.20
2019-04-05T22:41:00.407Z,36.10
2019-04-05T22:43:27.534Z,36.20
2019-04-05T22:45:54.253Z,36.20
2019-04-05T22:48:22.902Z,36.20
2019-04-05T22:50:49.776Z,36.10
2019-04-05T22:53:17.196Z,36.20
2019-04-05T22:55:43.965Z,36.20
2019-04-05T22:58:10.682Z,36.20
2019-04-05T23:00:37.522Z,36.20
2019-04-05T23:03:04.357Z,36.20
2019-04-05T23:05:31.396Z,36.20
2019-04-05T23:07:58.244Z,36.20
2019-04-05T23:10:25.001Z,36.20
2019-04-05T23:12:51.819Z,35.70
2019-04-05T23:15:18.608Z,36.20
2019-04-05T23:17:45.740Z,36.20
2019-04-05T23:20:12.509Z,36.30
2019-04-05T23:22:39.323Z,36.90
2019-04-05T23:25:06.260Z,36.30
2019-04-05T23:27:33.321Z,36.30
2019-04-05T23:30:00.567Z,36.30
2019-04-05T23:32:27.375Z,36.30
2019-04-05T23:34:54.239Z,36.20
2019-04-05T23:37:21.014Z,36.20
2019-04-05T23:39:47.764Z,36.30
2019-04-05T23:42:14.506Z,36.20
2019-04-05T23:44:41.540Z,36.20
2019-04-05T23:47:08.288Z,36.20
2019-04-05T23:49:35.399Z,36.20
2019-04-05T23:52:02.357Z,36.20
2019-04-05T23:54:29.338Z,36.30
2019-04-05T23:56:56.099Z,36.30
2019-04-05T23:59:23.212Z,36.20
